Tecate, CA (91987)

7:25 PM PDT on September 20, 2014 (GMT -0700)
POTRERO | Change Station
CLOSE
Current Station
Personal Weather Station
Location: Potrero, CA
Elevation: 2362 ft
Nearby Weather Stations

Elev 2362 ft 32.60 °N, 116.61 °W | Updated 37 minutes ago

Clear
Clear
69.0 °F
Feels Like 69.0 °F
N
4.0
Wind Variable Wind from WSW

Today
High -- | Low -- °F
--% Chance of Precip.
Yesterday
High -- | Low -- °F
Precip. -- in
6:33 AM 6:45 PM
Waning Crescent, 9% visible
Pressure 29.90 in
Visibility 10.0 miles
Clouds Clear
Dew Point 57 °F
Humidity 65%
Rainfall -999.00 in
Snow Depth 0 in , 0 in , 0 in
UV 0 out of 12
Pollen 5.50 out of 12
Ozone Good
PM2.5 Good
Flu Activity Not available.
METAR KSDM 210153Z 28006KT 10SM CLR 21/15 A2991 RMK AO2 SLP124 T02060150 $

More Conditions Fewer Conditions

Pressure 29.90 in
Visibility 10.0 miles
Clouds Clear
Dew Point 57 °F
Humidity 65%
Rainfall -999.00 in
Snow Depth 0 in , 0 in , 0 in
UV 0 out of 12
Pollen 5.50 out of 12
Ozone Good
PM2.5 Good
Flu Activity Not available.
METAR KSDM 210153Z 28006KT 10SM CLR 21/15 A2991 RMK AO2 SLP124 T02060150 $

More Conditions Fewer Conditions

10-Day Weather Forecast

Almanac

Astronomy

Sep. 20, 2014 Rise Set
Actual Time 6:33 AM PDT 6:45 PM PDT
Civil Twilight 6:08 AM PDT 7:10 PM PDT
Nautical Twilight 5:40 AM PDT 7:39 PM PDT
Astronomical Twilight 5:11 AM PDT 8:07 PM PDT
Moon 3:25 AM PDT (9/20) 4:44 PM PDT (9/20)
Length of Visible Light 13h 01m
Length of Day
12h 12m
Tomorrow will be 2m 0s shorter.
Waning Crescent, 9% of the Moon is Illuminated
Today
Waning Crescent
Sep 24
New
Oct 1
First Quarter
Oct 8
Full
Oct 15
Last Quarter

Today's Extremes

State Highs State Lows

Community

WunderPhotos

Upload Photos

1,755,032 photos uploaded!

WunderBlogs® & News

Nearby

Air Quality

  Air Quality AQ Index Pollutant
Yesterday Good
OZONE
Yesterday Good
PM2.5
Current Good
OZONE
Current Good
PM2.5
Saturday Good
PM2.5
Saturday Good
OZONE
Sunday Good
PM2.5
Sunday Good
OZONE
Monday Moderate
OZONE
Monday Good
PM2.5

Snow Depth

Station Depth Elevation
Adin Mountain 0 in 6200 ft
Monitor Pass 0 in 8350 ft
Summit Meadow 0 in 9122 ft
Leavitt Meadows 1 in 7200 ft
Burnside Lake 1 in 8139 ft

Earthquake Activity

City Distance Mag. Time & Date
Aguanga, California 61 miles 2.5 1:38 AM PDT
2014-09-19
Minimum magnitude displayed is 2.5.

Coastal Water Temperatures

Place Temperature
La Jolla, CA 72.0 °F
San Diego, CA 75.9 °F

Nearby Weather Stations